createdAt,value
2019-06-01T00:00:52.160Z,988.55
2019-06-01T00:01:52.172Z,988.56
2019-06-01T00:02:56.540Z,988.55
2019-06-01T00:03:52.122Z,988.55
2019-06-01T00:04:52.197Z,988.52
2019-06-01T00:05:52.102Z,988.52
2019-06-01T00:06:52.112Z,988.51
2019-06-01T00:07:53.119Z,988.52
2019-06-01T00:08:52.075Z,988.52
2019-06-01T00:09:52.126Z,988.54
2019-06-01T00:10:52.035Z,988.48
2019-06-01T00:11:52.035Z,988.48
2019-06-01T00:12:52.050Z,988.49
2019-06-01T00:13:52.096Z,988.53
2019-06-01T00:14:52.010Z,988.49
2019-06-01T00:15:52.037Z,988.52
2019-06-01T00:16:51.978Z,988.50
2019-06-01T00:17:51.979Z,988.51
2019-06-01T00:18:52.039Z,988.53
2019-06-01T00:19:51.949Z,988.54
2019-06-01T00:20:52.738Z,988.55
2019-06-01T00:21:52.290Z,988.48
2019-06-01T00:22:51.921Z,988.46
2019-06-01T00:23:52.826Z,988.49
2019-06-01T00:24:52.324Z,988.44
2019-06-01T00:25:52.901Z,988.42
2019-06-01T00:26:52.142Z,988.44
2019-06-01T00:27:52.897Z,988.41
2019-06-01T00:28:53.020Z,988.41
2019-06-01T00:29:53.063Z,988.41
2019-06-01T00:30:52.104Z,988.44
2019-06-01T00:31:52.857Z,988.42
2019-06-01T00:32:51.808Z,988.43
2019-06-01T00:33:51.869Z,988.44
2019-06-01T00:34:51.928Z,988.43
2019-06-01T00:35:51.800Z,988.42
2019-06-01T00:36:51.994Z,988.41
2019-06-01T00:37:51.894Z,988.43
2019-06-01T00:38:52.082Z,988.48
2019-06-01T00:39:52.054Z,988.45
2019-06-01T00:40:52.059Z,988.40
2019-06-01T00:41:52.521Z,988.39
2019-06-01T00:42:52.471Z,988.42
2019-06-01T00:43:52.491Z,988.42
2019-06-01T00:44:52.521Z,988.42
2019-06-01T00:45:53.026Z,988.39
2019-06-01T00:46:52.696Z,988.45
2019-06-01T00:47:53.037Z,988.44
2019-06-01T00:48:52.103Z,988.45
2019-06-01T00:49:52.946Z,988.51
2019-06-01T00:50:51.619Z,988.50
2019-06-01T00:51:52.133Z,988.52
2019-06-01T00:52:51.664Z,988.52
2019-06-01T00:53:51.949Z,988.52
2019-06-01T00:54:51.797Z,988.53
2019-06-01T00:55:51.678Z,988.47
2019-06-01T00:56:51.784Z,988.47
2019-06-01T00:57:51.883Z,988.47
2019-06-01T00:58:51.970Z,988.47
2019-06-01T00:59:53.139Z,988.43
2019-06-01T01:00:53.440Z,988.48
2019-06-01T01:01:52.362Z,988.50
2019-06-01T01:02:52.190Z,988.42
2019-06-01T01:03:52.342Z,988.44
2019-06-01T01:04:52.484Z,988.45
2019-06-01T01:05:52.648Z,988.47
2019-06-01T01:06:52.714Z,988.41
2019-06-01T01:07:52.142Z,988.40
2019-06-01T01:08:52.830Z,988.43
2019-06-01T01:09:51.389Z,988.42
2019-06-01T01:10:51.389Z,988.41
2019-06-01T01:11:51.444Z,988.40
2019-06-01T01:12:51.350Z,988.38
2019-06-01T01:13:51.431Z,988.38
2019-06-01T01:14:51.342Z,988.41
2019-06-01T01:15:51.451Z,988.38
2019-06-01T01:16:51.681Z,988.38
2019-06-01T01:17:52.014Z,988.36
2019-06-01T01:18:51.947Z,988.35
2019-06-01T01:19:51.959Z,988.33
2019-06-01T01:20:52.047Z,988.37
2019-06-01T01:21:52.151Z,988.38
2019-06-01T01:22:52.228Z,988.34
2019-06-01T01:23:53.031Z,988.37
2019-06-01T01:24:52.320Z,988.40
2019-06-01T01:25:52.499Z,988.37
2019-06-01T01:26:51.203Z,988.37
2019-06-01T01:27:51.249Z,988.37
2019-06-01T01:28:51.191Z,988.40
2019-06-01T01:29:51.274Z,988.39
2019-06-01T01:31:05.539Z,988.44
2019-06-01T01:31:53.161Z,988.45
2019-06-01T01:32:51.712Z,988.50
2019-06-01T01:33:51.391Z,988.53
2019-06-01T01:34:51.594Z,988.52
2019-06-01T01:35:52.616Z,988.54
2019-06-01T01:36:52.747Z,988.53
2019-06-01T01:37:51.971Z,988.51
2019-06-01T01:38:52.229Z,988.52
2019-06-01T01:39:52.168Z,988.54
2019-06-01T01:40:52.125Z,988.53
2019-06-01T01:41:52.096Z,988.51
2019-06-01T01:42:52.269Z,988.54
2019-06-01T01:43:52.662Z,988.49
2019-06-01T01:44:50.988Z,988.48
2019-06-01T01:45:51.076Z,988.50
2019-06-01T01:46:51.032Z,988.51
2019-06-01T01:47:50.971Z,988.53
2019-06-01T01:48:51.962Z,988.50
2019-06-01T01:49:52.013Z,988.56
2019-06-01T01:50:52.291Z,988.52
2019-06-01T01:51:50.913Z,988.54
2019-06-01T01:52:50.934Z,988.50
2019-06-01T01:53:50.904Z,988.54
2019-06-01T01:54:50.975Z,988.55
2019-06-01T01:55:51.023Z,988.56
2019-06-01T01:56:52.009Z,988.51
2019-06-01T01:57:51.198Z,988.54
2019-06-01T01:58:52.192Z,988.52
2019-06-01T01:59:51.291Z,988.49
2019-06-01T02:00:54.025Z,988.53
2019-06-01T02:01:50.819Z,988.51
2019-06-01T02:02:51.829Z,988.45
2019-06-01T02:03:51.685Z,988.50
2019-06-01T02:04:51.677Z,988.44
2019-06-01T02:05:52.940Z,988.46
2019-06-01T02:06:51.847Z,988.49
2019-06-01T02:07:51.009Z,988.46
2019-06-01T02:08:51.028Z,988.45
2019-06-01T02:09:51.113Z,988.46
2019-06-01T02:10:51.186Z,988.47
2019-06-01T02:11:51.388Z,988.48
2019-06-01T02:12:51.328Z,988.41
2019-06-01T02:13:51.541Z,988.42
2019-06-01T02:14:51.645Z,988.45
2019-06-01T02:15:52.177Z,988.44
2019-06-01T02:16:51.807Z,988.42
2019-06-01T02:17:52.019Z,988.44
2019-06-01T02:18:53.855Z,988.42
2019-06-01T02:19:50.618Z,988.42
2019-06-01T02:20:50.641Z,988.47
2019-06-01T02:21:50.594Z,988.41
2019-06-01T02:22:52.946Z,988.41
2019-06-01T02:23:50.661Z,988.42
2019-06-01T02:24:50.561Z,988.41
2019-06-01T02:25:50.592Z,988.41
2019-06-01T02:26:50.533Z,988.43
2019-06-01T02:27:50.651Z,988.45
2019-06-01T02:28:50.594Z,988.41
2019-06-01T02:29:50.527Z,988.40
2019-06-01T02:30:50.624Z,988.39
2019-06-01T02:31:50.477Z,988.39
2019-06-01T02:32:50.566Z,988.38
2019-06-01T02:33:50.447Z,988.40
2019-06-01T02:34:50.547Z,988.41
2019-06-01T02:35:50.430Z,988.38
2019-06-01T02:36:50.441Z,988.39
2019-06-01T02:37:50.399Z,988.31
2019-06-01T02:38:50.481Z,988.34
2019-06-01T02:39:50.403Z,988.33
2019-06-01T02:40:50.411Z,988.34
2019-06-01T02:41:50.372Z,988.33
2019-06-01T02:42:50.452Z,988.36
2019-06-01T02:43:50.352Z,988.39
2019-06-01T02:44:50.354Z,988.39
2019-06-01T02:45:51.369Z,988.36
2019-06-01T02:46:50.303Z,988.37
2019-06-01T02:47:50.385Z,988.39
2019-06-01T02:48:50.285Z,988.38
2019-06-01T02:49:50.287Z,988.39
2019-06-01T02:50:50.291Z,988.35
2019-06-01T02:51:50.258Z,988.37
2019-06-01T02:52:50.328Z,988.38
2019-06-01T02:53:50.240Z,988.40
2019-06-01T02:54:50.238Z,988.36
2019-06-01T02:55:50.210Z,988.38
2019-06-01T02:56:50.312Z,988.38
2019-06-01T02:57:50.190Z,988.39
2019-06-01T02:58:50.244Z,988.42
2019-06-01T02:59:50.171Z,988.39
2019-06-01T03:00:50.160Z,988.45
2019-06-01T03:01:57.455Z,988.46
2019-06-01T03:02:51.124Z,988.35
2019-06-01T03:03:50.177Z,988.41
2019-06-01T03:04:50.114Z,988.42
2019-06-01T03:05:50.097Z,988.40
2019-06-01T03:06:50.118Z,988.42
2019-06-01T03:07:50.148Z,988.41
2019-06-01T03:08:50.068Z,988.37
2019-06-01T03:09:50.137Z,988.39
2019-06-01T03:10:50.164Z,988.36
2019-06-01T03:11:50.049Z,988.33
2019-06-01T03:12:50.091Z,988.34
2019-06-01T03:13:50.000Z,988.35
2019-06-01T03:14:50.022Z,988.35
2019-06-01T03:15:50.030Z,988.35
2019-06-01T03:16:49.982Z,988.30
2019-06-01T03:17:50.031Z,988.30
2019-06-01T03:18:49.947Z,988.27
2019-06-01T03:19:50.994Z,988.29
2019-06-01T03:20:49.974Z,988.29
2019-06-01T03:21:49.925Z,988.28
2019-06-01T03:22:49.976Z,988.30
2019-06-01T03:23:49.914Z,988.30
2019-06-01T03:24:49.905Z,988.29
2019-06-01T03:25:49.898Z,988.24
2019-06-01T03:26:49.966Z,988.24
2019-06-01T03:27:49.846Z,988.26
2019-06-01T03:28:49.878Z,988.25
2019-06-01T03:29:49.828Z,988.22
2019-06-01T03:30:49.850Z,988.20
2019-06-01T03:31:49.803Z,988.27
2019-06-01T03:32:49.861Z,988.23
2019-06-01T03:33:49.781Z,988.21
2019-06-01T03:34:49.892Z,988.24
2019-06-01T03:35:49.782Z,988.25
2019-06-01T03:36:49.753Z,988.26
2019-06-01T03:37:49.794Z,988.24
2019-06-01T03:38:49.734Z,988.22
2019-06-01T03:39:49.837Z,988.25
2019-06-01T03:40:49.727Z,988.23
2019-06-01T03:41:49.695Z,988.26
2019-06-01T03:42:49.676Z,988.23
2019-06-01T03:43:49.700Z,988.23
2019-06-01T03:44:49.657Z,988.24
2019-06-01T03:45:49.677Z,988.27
2019-06-01T03:46:49.638Z,988.27
2019-06-01T03:47:49.668Z,988.23
2019-06-01T03:48:49.618Z,988.27
2019-06-01T03:49:49.710Z,988.26
2019-06-01T03:50:49.610Z,988.29
2019-06-01T03:51:49.662Z,988.31
2019-06-01T03:52:49.581Z,988.33
2019-06-01T03:53:49.571Z,988.28
2019-06-01T03:54:49.542Z,988.28
2019-06-01T03:55:49.662Z,988.29
2019-06-01T03:56:49.523Z,988.29
2019-06-01T03:57:49.514Z,988.25
2019-06-01T03:58:49.625Z,988.26
2019-06-01T03:59:49.486Z,988.22
2019-06-01T04:00:49.596Z,988.25
2019-06-01T04:01:49.476Z,988.24
2019-06-01T04:02:49.467Z,988.24
2019-06-01T04:03:49.457Z,988.18
2019-06-01T04:04:49.527Z,988.23
2019-06-01T04:05:49.448Z,988.23
2019-06-01T04:06:49.473Z,988.19
2019-06-01T04:07:49.444Z,988.23
2019-06-01T04:08:49.391Z,988.26
2019-06-01T04:09:49.470Z,988.25
2019-06-01T04:10:49.362Z,988.27
2019-06-01T04:11:49.452Z,988.24
2019-06-01T04:12:49.342Z,988.26
2019-06-01T04:13:49.442Z,988.29
2019-06-01T04:14:49.326Z,988.27
2019-06-01T04:15:49.384Z,988.24
2019-06-01T04:16:49.335Z,988.27
2019-06-01T04:17:49.319Z,988.29
2019-06-01T04:18:49.285Z,988.29
2019-06-01T04:19:49.368Z,988.29
2019-06-01T04:20:49.267Z,988.30
2019-06-01T04:21:49.337Z,988.27
2019-06-01T04:22:49.227Z,988.30
2019-06-01T04:23:49.219Z,988.28
2019-06-01T04:24:49.292Z,988.28
2019-06-01T04:25:49.200Z,988.31
2019-06-01T04:26:50.292Z,988.27
2019-06-01T04:27:49.180Z,988.25
2019-06-01T04:28:49.161Z,988.28
2019-06-01T04:29:49.151Z,988.26
2019-06-01T04:30:49.210Z,988.24
2019-06-01T04:31:49.153Z,988.31
2019-06-01T04:32:50.471Z,988.25
2019-06-01T04:33:49.213Z,988.30
2019-06-01T04:34:49.109Z,988.31
2019-06-01T04:35:49.147Z,988.37
2019-06-01T04:36:49.086Z,988.44
2019-06-01T04:37:49.178Z,988.42
2019-06-01T04:38:49.060Z,988.41
2019-06-01T04:39:49.107Z,988.38
2019-06-01T04:40:49.033Z,988.40
2019-06-01T04:41:49.088Z,988.44
2019-06-01T04:42:49.071Z,988.39
2019-06-01T04:43:49.091Z,988.36
2019-06-01T04:44:49.000Z,988.37
2019-06-01T04:45:49.025Z,988.39
2019-06-01T04:46:49.002Z,988.39
2019-06-01T04:47:49.064Z,988.48
2019-06-01T04:48:48.971Z,988.37
2019-06-01T04:49:48.935Z,988.40
2019-06-01T04:50:48.923Z,988.40
2019-06-01T04:51:48.925Z,988.42
2019-06-01T04:52:48.915Z,988.39
2019-06-01T04:53:48.968Z,988.35
2019-06-01T04:54:48.881Z,988.35
2019-06-01T04:55:48.876Z,988.35
2019-06-01T04:56:48.977Z,988.30
2019-06-01T04:57:48.867Z,988.30
2019-06-01T04:58:48.911Z,988.32
2019-06-01T04:59:48.829Z,988.26
2019-06-01T05:00:48.819Z,988.24
2019-06-01T05:01:48.919Z,988.24
2019-06-01T05:02:56.569Z,988.22
2019-06-01T05:03:49.771Z,988.28
2019-06-01T05:04:48.838Z,988.21
2019-06-01T05:05:48.753Z,988.23
2019-06-01T05:06:48.854Z,988.21
2019-06-01T05:07:48.756Z,988.24
2019-06-01T05:08:48.799Z,988.27
2019-06-01T05:09:48.704Z,988.29
2019-06-01T05:10:49.744Z,988.22
2019-06-01T05:11:48.695Z,988.21
2019-06-01T05:12:48.816Z,988.33
2019-06-01T05:13:48.677Z,988.26
2019-06-01T05:14:48.702Z,988.33
2019-06-01T05:15:48.648Z,988.29
2019-06-01T05:16:48.638Z,988.24
2019-06-01T05:17:48.628Z,988.25
2019-06-01T05:18:48.669Z,988.23
2019-06-01T05:19:48.601Z,988.26
2019-06-01T05:20:48.599Z,988.27
2019-06-01T05:21:48.591Z,988.28
2019-06-01T05:22:50.632Z,988.27
2019-06-01T05:23:48.560Z,988.31
2019-06-01T05:24:49.604Z,988.30
2019-06-01T05:25:48.543Z,988.24
2019-06-01T05:26:48.592Z,988.33
2019-06-01T05:27:48.533Z,988.26
2019-06-01T05:28:48.554Z,988.26
2019-06-01T05:29:48.495Z,988.27
2019-06-01T05:30:48.588Z,988.30
2019-06-01T05:31:48.466Z,988.22
2019-06-01T05:32:48.596Z,988.25
2019-06-01T05:33:48.437Z,988.23
2019-06-01T05:34:48.464Z,988.25
2019-06-01T05:35:48.423Z,988.27
2019-06-01T05:36:48.602Z,988.27
2019-06-01T05:37:48.409Z,988.23
2019-06-01T05:38:48.430Z,988.27
2019-06-01T05:39:48.382Z,988.31
2019-06-01T05:40:48.473Z,988.28
2019-06-01T05:41:48.363Z,988.29
2019-06-01T05:42:48.367Z,988.30
2019-06-01T05:43:48.343Z,988.26
2019-06-01T05:44:48.335Z,988.27
2019-06-01T05:45:48.321Z,988.27
2019-06-01T05:46:48.375Z,988.27
2019-06-01T05:47:48.385Z,988.27
2019-06-01T05:48:48.276Z,988.31
2019-06-01T05:49:49.296Z,988.26
2019-06-01T05:50:48.247Z,988.27
2019-06-01T05:51:49.338Z,988.24
2019-06-01T05:52:48.273Z,988.19
2019-06-01T05:53:49.329Z,988.19
2019-06-01T05:54:48.219Z,988.20
2019-06-01T05:55:48.294Z,988.27
2019-06-01T05:56:48.190Z,988.24
2019-06-01T05:57:48.230Z,988.26
2019-06-01T05:58:48.246Z,988.32
2019-06-01T05:59:48.153Z,988.20
2019-06-01T06:00:48.227Z,988.21
2019-06-01T06:01:48.115Z,988.20
2019-06-01T06:02:48.163Z,988.18
2019-06-01T06:03:48.173Z,988.19
2019-06-01T06:04:48.094Z,988.19
2019-06-01T06:05:48.336Z,988.16
2019-06-01T06:06:48.078Z,988.19
2019-06-01T06:07:48.156Z,988.25
2019-06-01T06:08:48.128Z,988.20
2019-06-01T06:09:48.049Z,988.21
2019-06-01T06:10:48.124Z,988.20
2019-06-01T06:11:48.029Z,988.21
2019-06-01T06:12:48.039Z,988.28
2019-06-01T06:13:48.065Z,988.25
2019-06-01T06:14:47.981Z,988.25
2019-06-01T06:15:48.063Z,988.28
2019-06-01T06:16:47.977Z,988.24
2019-06-01T06:17:47.986Z,988.15
2019-06-01T06:18:47.956Z,988.21
2019-06-01T06:19:48.023Z,988.22
2019-06-01T06:20:47.912Z,988.20
2019-06-01T06:21:47.969Z,988.18
2019-06-01T06:22:47.905Z,988.23
2019-06-01T06:23:47.988Z,988.23
2019-06-01T06:24:47.876Z,988.20
2019-06-01T06:25:47.927Z,988.22
2019-06-01T06:26:47.848Z,988.23
2019-06-01T06:27:47.869Z,988.15
2019-06-01T06:28:47.835Z,988.14
2019-06-01T06:29:47.811Z,988.16
2019-06-01T06:30:47.870Z,988.15
2019-06-01T06:31:47.814Z,988.15
2019-06-01T06:32:47.813Z,988.13
2019-06-01T06:33:56.541Z,988.10
2019-06-01T06:34:48.876Z,988.09
2019-06-01T06:35:47.763Z,988.10
2019-06-01T06:36:47.792Z,988.08
2019-06-01T06:37:47.734Z,988.12
2019-06-01T06:38:47.766Z,988.13
2019-06-01T06:39:47.794Z,988.13
2019-06-01T06:40:47.718Z,988.06
2019-06-01T06:41:47.731Z,988.09
2019-06-01T06:42:47.674Z,988.12
2019-06-01T06:43:48.748Z,988.11
2019-06-01T06:44:47.659Z,988.07
2019-06-01T06:45:47.703Z,988.00
2019-06-01T06:46:47.641Z,987.99
2019-06-01T06:47:47.748Z,988.02
2019-06-01T06:48:47.623Z,988.04
2019-06-01T06:49:47.723Z,988.05
2019-06-01T06:50:47.584Z,988.03
2019-06-01T06:51:47.604Z,988.02
2019-06-01T06:52:47.699Z,988.05
2019-06-01T06:53:47.647Z,988.01
2019-06-01T06:54:47.555Z,988.00
2019-06-01T06:55:47.536Z,988.02
2019-06-01T06:56:47.517Z,987.95
2019-06-01T06:57:48.539Z,987.96
2019-06-01T06:58:47.521Z,987.95
2019-06-01T06:59:47.601Z,987.95
2019-06-01T07:00:47.492Z,987.94
2019-06-01T07:01:47.490Z,987.93
2019-06-01T07:02:47.466Z,987.95
2019-06-01T07:03:47.572Z,987.96
2019-06-01T07:04:47.442Z,987.94
2019-06-01T07:05:47.463Z,987.94
2019-06-01T07:06:47.418Z,987.96
2019-06-01T07:07:47.493Z,987.98
2019-06-01T07:08:48.948Z,987.90
2019-06-01T07:09:47.494Z,987.88
2019-06-01T07:10:47.379Z,987.92
2019-06-01T07:11:47.367Z,987.85
2019-06-01T07:12:47.349Z,987.91
2019-06-01T07:13:49.373Z,987.91
2019-06-01T07:14:47.345Z,987.91
2019-06-01T07:15:47.340Z,987.94
2019-06-01T07:16:47.317Z,987.95
2019-06-01T07:17:48.405Z,987.94
2019-06-01T07:18:47.272Z,987.92
2019-06-01T07:19:47.362Z,987.91
2019-06-01T07:20:47.255Z,987.89
2019-06-01T07:21:47.354Z,987.86
2019-06-01T07:22:47.261Z,987.88
2019-06-01T07:23:48.317Z,987.93
2019-06-01T07:24:47.256Z,987.88
2019-06-01T07:25:49.204Z,987.86
2019-06-01T07:26:47.197Z,987.90
2019-06-01T07:27:47.196Z,987.90
2019-06-01T07:28:47.234Z,987.88
2019-06-01T07:29:47.515Z,987.83
2019-06-01T07:30:50.376Z,987.81
2019-06-01T07:31:47.132Z,987.88
2019-06-01T07:32:47.134Z,987.91
2019-06-01T07:33:47.172Z,987.91
2019-06-01T07:34:47.114Z,987.88
2019-06-01T07:35:47.153Z,987.92
2019-06-01T07:36:47.102Z,987.90
2019-06-01T07:37:47.075Z,987.98
2019-06-01T07:38:47.070Z,987.97
2019-06-01T07:39:47.076Z,987.94
2019-06-01T07:40:47.050Z,987.97
2019-06-01T07:41:47.041Z,987.93
2019-06-01T07:42:47.009Z,987.93
2019-06-01T07:43:47.012Z,987.94
2019-06-01T07:44:46.992Z,987.90
2019-06-01T07:45:48.061Z,987.86
2019-06-01T07:46:47.008Z,987.88
2019-06-01T07:47:46.974Z,987.94
2019-06-01T07:48:46.962Z,987.94
2019-06-01T07:49:46.963Z,987.93
2019-06-01T07:50:46.937Z,987.94
2019-06-01T07:51:48.092Z,987.91
2019-06-01T07:52:46.966Z,987.93
2019-06-01T07:53:46.906Z,987.91
2019-06-01T07:54:46.906Z,987.92
2019-06-01T07:55:46.889Z,987.90
2019-06-01T07:56:46.870Z,987.87
2019-06-01T07:57:46.859Z,987.89
2019-06-01T07:58:46.879Z,987.87
2019-06-01T07:59:46.842Z,987.91
2019-06-01T08:00:46.864Z,987.89
2019-06-01T08:01:46.795Z,987.80
2019-06-01T08:02:46.803Z,987.87
2019-06-01T08:03:46.783Z,987.86
2019-06-01T08:04:53.390Z,987.79
2019-06-01T08:05:47.774Z,987.85
2019-06-01T08:06:48.498Z,987.76
2019-06-01T08:07:46.735Z,987.76
2019-06-01T08:08:46.866Z,987.77
2019-06-01T08:09:46.728Z,987.77
2019-06-01T08:10:46.848Z,987.75
2019-06-01T08:11:46.708Z,987.78
2019-06-01T08:12:47.763Z,987.81
2019-06-01T08:13:46.804Z,987.78
2019-06-01T08:14:46.660Z,987.80
2019-06-01T08:15:46.804Z,987.77
2019-06-01T08:16:46.643Z,987.76
2019-06-01T08:17:46.772Z,987.75
2019-06-01T08:18:46.745Z,987.80
2019-06-01T08:19:46.626Z,987.82
2019-06-01T08:20:46.714Z,987.82
2019-06-01T08:21:46.595Z,987.83
2019-06-01T08:22:46.715Z,987.82
2019-06-01T08:23:46.577Z,987.84
2019-06-01T08:24:46.657Z,987.85
2019-06-01T08:25:46.570Z,987.90
2019-06-01T08:26:46.581Z,987.89
2019-06-01T08:27:46.520Z,987.85
2019-06-01T08:28:46.620Z,987.87
2019-06-01T08:29:46.490Z,987.89
2019-06-01T08:30:46.603Z,987.89
2019-06-01T08:31:46.475Z,987.85
2019-06-01T08:32:46.602Z,987.86
2019-06-01T08:33:46.463Z,987.86
2019-06-01T08:34:46.457Z,987.84
2019-06-01T08:35:46.489Z,987.82
2019-06-01T08:36:46.575Z,987.79
2019-06-01T08:37:46.416Z,987.79
2019-06-01T08:38:46.534Z,987.80
2019-06-01T08:39:46.467Z,987.78
2019-06-01T08:40:46.379Z,987.76
2019-06-01T08:41:46.449Z,987.78
2019-06-01T08:42:46.359Z,987.75
2019-06-01T08:43:47.473Z,987.78
2019-06-01T08:44:46.330Z,987.75
2019-06-01T08:45:46.384Z,987.76
2019-06-01T08:46:46.333Z,987.79
2019-06-01T08:47:46.422Z,987.78
2019-06-01T08:48:46.303Z,987.80
2019-06-01T08:49:46.355Z,987.79
2019-06-01T08:50:46.433Z,987.80
2019-06-01T08:51:46.335Z,987.81
2019-06-01T08:52:46.253Z,987.77
2019-06-01T08:53:46.330Z,987.79
2019-06-01T08:54:46.231Z,987.76
2019-06-01T08:55:46.219Z,987.77
2019-06-01T08:56:46.220Z,987.79
2019-06-01T08:57:46.311Z,987.78
2019-06-01T08:58:46.190Z,987.71
2019-06-01T08:59:46.245Z,987.73
2019-06-01T09:00:46.311Z,987.75
2019-06-01T09:01:46.162Z,987.78
2019-06-01T09:02:46.243Z,987.76
2019-06-01T09:03:47.009Z,987.74
2019-06-01T09:04:46.174Z,987.73
2019-06-01T09:05:46.105Z,987.74
2019-06-01T09:06:46.157Z,987.73
2019-06-01T09:07:46.087Z,987.73
2019-06-01T09:08:46.159Z,987.74
2019-06-01T09:09:46.068Z,987.70
2019-06-01T09:10:46.188Z,987.70
2019-06-01T09:11:46.245Z,987.69
2019-06-01T09:12:46.122Z,987.66
2019-06-01T09:13:46.021Z,987.68
2019-06-01T09:14:46.072Z,987.65
2019-06-01T09:15:46.000Z,987.64
2019-06-01T09:16:45.986Z,987.66
2019-06-01T09:17:45.983Z,987.69
2019-06-01T09:18:46.033Z,987.66
2019-06-01T09:19:45.955Z,987.66
2019-06-01T09:20:46.078Z,987.67
2019-06-01T09:21:46.049Z,987.68
2019-06-01T09:22:48.192Z,987.69
2019-06-01T09:23:45.983Z,987.66
2019-06-01T09:24:45.910Z,987.67
2019-06-01T09:25:46.009Z,987.61
2019-06-01T09:26:45.969Z,987.69
2019-06-01T09:27:45.984Z,987.72
2019-06-01T09:28:45.854Z,987.72
2019-06-01T09:29:45.982Z,987.72
2019-06-01T09:30:45.843Z,987.66
2019-06-01T09:31:45.923Z,987.69
2019-06-01T09:32:45.834Z,987.70
2019-06-01T09:33:45.866Z,987.66
2019-06-01T09:34:45.795Z,987.64
2019-06-01T09:35:55.630Z,987.66
2019-06-01T09:36:46.766Z,987.65
2019-06-01T09:37:47.422Z,987.61
2019-06-01T09:38:45.800Z,987.58
2019-06-01T09:39:45.729Z,987.58
2019-06-01T09:40:45.928Z,987.60
2019-06-01T09:41:45.721Z,987.56
2019-06-01T09:42:45.710Z,987.54
2019-06-01T09:43:45.691Z,987.52
2019-06-01T09:44:45.812Z,987.47
2019-06-01T09:45:45.677Z,987.45
2019-06-01T09:46:46.776Z,987.42
2019-06-01T09:47:46.027Z,987.44
2019-06-01T09:48:45.635Z,987.44
2019-06-01T09:49:46.665Z,987.36
2019-06-01T09:50:45.616Z,987.34
2019-06-01T09:51:45.687Z,987.34
2019-06-01T09:52:45.612Z,987.29
2019-06-01T09:53:45.578Z,987.31
2019-06-01T09:54:45.581Z,987.27
2019-06-01T09:55:45.660Z,987.25
2019-06-01T09:56:45.560Z,987.25
2019-06-01T09:57:45.655Z,987.20
2019-06-01T09:58:45.674Z,987.18
2019-06-01T09:59:45.533Z,987.20
2019-06-01T10:00:45.594Z,987.19
2019-06-01T10:01:45.534Z,987.23
2019-06-01T10:02:45.577Z,987.18
2019-06-01T10:03:45.475Z,987.21
2019-06-01T10:04:45.577Z,987.18
2019-06-01T10:06:00.690Z,987.17
2019-06-01T10:06:46.447Z,987.18
2019-06-01T10:07:45.531Z,987.24
2019-06-01T10:08:45.430Z,987.24
2019-06-01T10:09:45.420Z,987.17
2019-06-01T10:10:45.490Z,987.20
2019-06-01T10:11:45.394Z,987.24
2019-06-01T10:12:45.461Z,987.17
2019-06-01T10:13:45.372Z,987.21
2019-06-01T10:14:45.352Z,987.18
2019-06-01T10:15:45.343Z,987.15
2019-06-01T10:16:45.397Z,987.15
2019-06-01T10:17:45.335Z,987.13
2019-06-01T10:18:45.437Z,987.13
2019-06-01T10:19:45.307Z,987.15
2019-06-01T10:20:45.301Z,987.14
2019-06-01T10:21:45.339Z,987.15
2019-06-01T10:22:45.288Z,987.07
2019-06-01T10:23:49.180Z,987.10
2019-06-01T10:24:45.239Z,987.09
2019-06-01T10:25:45.230Z,987.15
2019-06-01T10:26:45.233Z,987.13
2019-06-01T10:27:45.284Z,987.08
2019-06-01T10:28:45.204Z,987.05
2019-06-01T10:29:45.283Z,987.07
2019-06-01T10:30:45.299Z,987.00
2019-06-01T10:31:45.176Z,987.07
2019-06-01T10:32:45.242Z,987.03
2019-06-01T10:33:45.157Z,987.05
2019-06-01T10:34:45.234Z,987.05
2019-06-01T10:35:45.123Z,987.03
2019-06-01T10:36:45.147Z,987.01
2019-06-01T10:37:45.118Z,987.03
2019-06-01T10:38:45.242Z,987.03
2019-06-01T10:39:45.079Z,987.02
2019-06-01T10:40:45.132Z,986.97
2019-06-01T10:41:45.051Z,987.00
2019-06-01T10:42:45.131Z,987.01
2019-06-01T10:43:45.042Z,986.99
2019-06-01T10:44:45.985Z,987.02
2019-06-01T10:45:45.024Z,987.06
2019-06-01T10:46:45.015Z,987.05
2019-06-01T10:47:45.015Z,987.03
2019-06-01T10:48:45.076Z,987.02
2019-06-01T10:49:44.966Z,986.99
2019-06-01T10:50:45.007Z,987.00
2019-06-01T10:51:44.948Z,987.07
2019-06-01T10:52:45.051Z,987.05
2019-06-01T10:53:44.940Z,987.04
2019-06-01T10:54:44.991Z,987.04
2019-06-01T10:55:44.905Z,987.00
2019-06-01T10:56:45.021Z,986.99
2019-06-01T10:57:44.901Z,987.00
2019-06-01T10:58:59.154Z,986.99
2019-06-01T10:59:45.864Z,987.00
2019-06-01T11:00:50.500Z,987.00
2019-06-01T11:01:45.839Z,986.96
2019-06-01T11:02:44.843Z,986.90
2019-06-01T11:03:44.967Z,986.93
2019-06-01T11:04:44.807Z,986.90
2019-06-01T11:05:44.940Z,986.89
2019-06-01T11:06:48.601Z,986.90
2019-06-01T11:07:44.779Z,986.93
2019-06-01T11:08:44.789Z,986.99
2019-06-01T11:09:44.810Z,986.93
2019-06-01T11:10:44.743Z,986.99
2019-06-01T11:11:44.843Z,987.00
2019-06-01T11:12:44.712Z,987.02
2019-06-01T11:13:44.724Z,987.03
2019-06-01T11:14:45.773Z,986.98
2019-06-01T11:15:44.666Z,986.97
2019-06-01T11:16:44.796Z,986.98
2019-06-01T11:17:44.675Z,986.99
2019-06-01T11:18:44.676Z,986.97
2019-06-01T11:19:44.648Z,987.02
2019-06-01T11:20:44.768Z,987.03
2019-06-01T11:21:44.639Z,987.00
2019-06-01T11:22:45.730Z,987.02
2019-06-01T11:23:46.553Z,987.01
2019-06-01T11:24:44.592Z,986.96
2019-06-01T11:25:45.722Z,986.93
2019-06-01T11:26:44.567Z,986.90
2019-06-01T11:27:44.633Z,986.88
2019-06-01T11:28:44.566Z,986.85
2019-06-01T11:29:51.065Z,986.91
2019-06-01T11:30:45.570Z,986.92
2019-06-01T11:31:44.520Z,986.93
2019-06-01T11:32:45.107Z,986.85
2019-06-01T11:33:44.520Z,986.81
2019-06-01T11:34:44.584Z,986.77
2019-06-01T11:35:45.464Z,986.79
2019-06-01T11:37:03.206Z,986.73
2019-06-01T11:37:45.453Z,986.75
2019-06-01T11:38:45.551Z,986.71
2019-06-01T11:39:44.845Z,986.66
2019-06-01T11:40:44.837Z,986.69
2019-06-01T11:41:44.830Z,986.66
2019-06-01T11:42:45.085Z,986.62
2019-06-01T11:43:46.127Z,986.66
2019-06-01T11:44:44.924Z,986.67
2019-06-01T11:45:45.240Z,986.69
2019-06-01T11:46:45.109Z,986.60
2019-06-01T11:47:45.127Z,986.61
2019-06-01T11:48:45.379Z,986.60
2019-06-01T11:49:45.074Z,986.59
2019-06-01T11:50:45.358Z,986.63
2019-06-01T11:51:45.290Z,986.64
2019-06-01T11:52:45.583Z,986.67
2019-06-01T11:53:45.681Z,986.64
2019-06-01T11:54:45.439Z,986.59
2019-06-01T11:55:45.548Z,986.59
2019-06-01T11:56:45.451Z,986.61
2019-06-01T11:57:45.913Z,986.56
2019-06-01T11:58:45.505Z,986.52
2019-06-01T11:59:45.589Z,986.54
2019-06-01T12:00:44.196Z,986.55
2019-06-01T12:01:44.256Z,986.57
2019-06-01T12:02:44.228Z,986.49
2019-06-01T12:03:44.171Z,986.53
2019-06-01T12:04:44.299Z,986.50
2019-06-01T12:05:44.238Z,986.52
2019-06-01T12:06:44.155Z,986.51
2019-06-01T12:07:44.271Z,986.50
2019-06-01T12:08:46.206Z,986.43
2019-06-01T12:09:44.242Z,986.44
2019-06-01T12:10:45.192Z,986.41
2019-06-01T12:11:44.284Z,986.35
2019-06-01T12:12:44.386Z,986.34
2019-06-01T12:13:44.540Z,986.41
2019-06-01T12:14:44.513Z,986.40
2019-06-01T12:15:44.364Z,986.43
2019-06-01T12:16:44.782Z,986.42
2019-06-01T12:17:44.878Z,986.40
2019-06-01T12:18:44.732Z,986.42
2019-06-01T12:19:44.740Z,986.35
2019-06-01T12:20:44.925Z,986.36
2019-06-01T12:21:45.236Z,986.37
2019-06-01T12:22:45.013Z,986.33
2019-06-01T12:23:45.531Z,986.34
2019-06-01T12:24:45.043Z,986.35
2019-06-01T12:25:44.346Z,986.31
2019-06-01T12:26:43.914Z,986.29
2019-06-01T12:27:43.905Z,986.27
2019-06-01T12:28:45.832Z,986.24